createdAt,value
2023-03-11T00:00:02.891Z,998.39
2023-03-11T00:01:02.905Z,998.42
2023-03-11T00:02:03.077Z,998.47
2023-03-11T00:03:02.843Z,998.48
2023-03-11T00:04:02.884Z,998.51
2023-03-11T00:05:02.890Z,998.40
2023-03-11T00:06:02.847Z,998.52
2023-03-11T00:07:02.816Z,998.56
2023-03-11T00:08:02.840Z,998.66
2023-03-11T00:09:02.795Z,998.65
2023-03-11T00:10:02.809Z,998.66
2023-03-11T00:11:02.749Z,998.59
2023-03-11T00:12:02.786Z,998.66
2023-03-11T00:13:02.724Z,998.73
2023-03-11T00:14:02.774Z,998.71
2023-03-11T00:15:02.727Z,998.87
2023-03-11T00:16:02.737Z,998.88
2023-03-11T00:17:02.673Z,998.98
2023-03-11T00:18:02.684Z,998.85
2023-03-11T00:19:02.669Z,998.80
2023-03-11T00:20:02.691Z,998.88
2023-03-11T00:21:02.646Z,998.84
2023-03-11T00:22:02.670Z,998.91
2023-03-11T00:23:02.592Z,998.87
2023-03-11T00:24:02.658Z,998.81
2023-03-11T00:25:02.563Z,998.85
2023-03-11T00:26:02.693Z,998.89
2023-03-11T00:27:02.576Z,998.88
2023-03-11T00:28:02.557Z,998.89
2023-03-11T00:29:02.539Z,998.97
2023-03-11T00:30:02.562Z,999.02
2023-03-11T00:31:02.565Z,999.01
2023-03-11T00:32:02.553Z,999.05
2023-03-11T00:33:02.499Z,999.09
2023-03-11T00:34:02.501Z,999.09
2023-03-11T00:35:03.155Z,999.21
2023-03-11T00:36:02.521Z,999.16
2023-03-11T00:37:02.414Z,999.23
2023-03-11T00:38:02.452Z,999.22
2023-03-11T00:39:02.486Z,999.26
2023-03-11T00:40:02.409Z,999.31
2023-03-11T00:41:02.407Z,999.18
2023-03-11T00:42:02.405Z,999.32
2023-03-11T00:43:02.340Z,999.34
2023-03-11T00:44:02.420Z,999.32
2023-03-11T00:45:02.323Z,999.36
2023-03-11T00:46:02.349Z,999.33
2023-03-11T00:47:02.315Z,999.42
2023-03-11T00:48:02.307Z,999.35
2023-03-11T00:49:02.301Z,999.43
2023-03-11T00:50:02.322Z,999.50
2023-03-11T00:51:02.244Z,999.47
2023-03-11T00:52:02.272Z,999.42
2023-03-11T00:53:02.206Z,999.46
2023-03-11T00:54:02.226Z,999.52
2023-03-11T00:55:02.221Z,999.56
2023-03-11T00:56:02.230Z,999.65
2023-03-11T00:57:02.182Z,999.64
2023-03-11T00:58:02.196Z,999.63
2023-03-11T00:59:02.141Z,999.63
2023-03-11T01:00:02.138Z,999.68
2023-03-11T01:01:02.173Z,999.67
2023-03-11T01:02:02.264Z,999.72
2023-03-11T01:03:02.081Z,999.75
2023-03-11T01:04:02.133Z,999.75
2023-03-11T01:05:02.090Z,999.73
2023-03-11T01:06:02.093Z,999.79
2023-03-11T01:07:02.025Z,999.83
2023-03-11T01:08:02.182Z,999.87
2023-03-11T01:09:02.011Z,999.84
2023-03-11T01:10:02.010Z,999.76
2023-03-11T01:11:02.005Z,999.84
2023-03-11T01:12:02.007Z,999.85
2023-03-11T01:13:01.966Z,999.85
2023-03-11T01:14:02.025Z,999.86
2023-03-11T01:15:01.980Z,999.84
2023-03-11T01:16:02.049Z,999.95
2023-03-11T01:17:01.900Z,999.97
2023-03-11T01:18:01.910Z,999.94
2023-03-11T01:19:01.896Z,1000.00
2023-03-11T01:20:02.034Z,999.97
2023-03-11T01:21:01.852Z,1000.06
2023-03-11T01:22:01.859Z,1000.16
2023-03-11T01:23:01.857Z,1000.13
2023-03-11T01:24:01.831Z,1000.04
2023-03-11T01:25:01.820Z,1000.15
2023-03-11T01:26:01.870Z,1000.26
2023-03-11T01:27:01.761Z,1000.22
2023-03-11T01:28:01.816Z,1000.10
2023-03-11T01:29:01.742Z,1000.21
2023-03-11T01:30:01.771Z,1000.23
2023-03-11T01:31:01.761Z,1000.17
2023-03-11T01:32:01.860Z,1000.24
2023-03-11T01:33:01.711Z,1000.20
2023-03-11T01:34:01.752Z,1000.24
2023-03-11T01:35:01.657Z,1000.27
2023-03-11T01:36:01.759Z,1000.22
2023-03-11T01:37:01.679Z,1000.15
2023-03-11T01:38:01.706Z,1000.31
2023-03-11T01:39:01.613Z,1000.23
2023-03-11T01:40:01.674Z,1000.29
2023-03-11T01:41:01.591Z,1000.30
2023-03-11T01:42:01.611Z,1000.27
2023-03-11T01:43:01.593Z,1000.31
2023-03-11T01:44:01.622Z,1000.35
2023-03-11T01:45:01.569Z,1000.35
2023-03-11T01:46:01.609Z,1000.46
2023-03-11T01:47:01.512Z,1000.47
2023-03-11T01:48:01.548Z,1000.38
2023-03-11T01:49:01.483Z,1000.48
2023-03-11T01:50:01.537Z,1000.43
2023-03-11T01:51:01.498Z,1000.44
2023-03-11T01:52:01.472Z,1000.45
2023-03-11T01:53:01.465Z,1000.55
2023-03-11T01:54:01.475Z,1000.58
2023-03-11T01:55:01.419Z,1000.51
2023-03-11T01:56:01.564Z,1000.57
2023-03-11T01:57:01.389Z,1000.58
2023-03-11T01:58:01.400Z,1000.56
2023-03-11T01:59:01.438Z,1000.62
2023-03-11T02:00:01.364Z,1000.64
2023-03-11T02:01:01.362Z,1000.66
2023-03-11T02:02:01.481Z,1000.64
2023-03-11T02:03:01.358Z,1000.66
2023-03-11T02:04:01.367Z,1000.67
2023-03-11T02:05:01.298Z,1000.67
2023-03-11T02:06:01.296Z,1000.74
2023-03-11T02:07:01.274Z,1000.66
2023-03-11T02:08:01.402Z,1000.70
2023-03-11T02:09:01.233Z,1000.69
2023-03-11T02:10:01.238Z,1000.67
2023-03-11T02:11:01.223Z,1000.69
2023-03-11T02:12:01.215Z,1000.70
2023-03-11T02:13:01.207Z,1000.64
2023-03-11T02:14:01.324Z,1000.66
2023-03-11T02:15:01.152Z,1000.66
2023-03-11T02:16:01.212Z,1000.62
2023-03-11T02:17:01.145Z,1000.75
2023-03-11T02:18:01.159Z,1000.73
2023-03-11T02:19:01.132Z,1000.69
2023-03-11T02:20:01.140Z,1000.71
2023-03-11T02:21:01.829Z,1000.69
2023-03-11T02:22:01.140Z,1000.70
2023-03-11T02:23:01.073Z,1000.62
2023-03-11T02:24:01.074Z,1000.65
2023-03-11T02:25:01.053Z,1000.68
2023-03-11T02:26:01.090Z,1000.66
2023-03-11T02:27:01.010Z,1000.67
2023-03-11T02:28:01.062Z,1000.68
2023-03-11T02:29:00.983Z,1000.73
2023-03-11T02:30:01.013Z,1000.75
2023-03-11T02:31:01.027Z,1000.74
2023-03-11T02:32:01.006Z,1000.77
2023-03-11T02:33:00.954Z,1000.72
2023-03-11T02:34:00.978Z,1000.76
2023-03-11T02:35:00.910Z,1000.77
2023-03-11T02:36:00.972Z,1000.81
2023-03-11T02:37:00.884Z,1000.79
2023-03-11T02:38:00.919Z,1000.80
2023-03-11T02:39:00.885Z,1000.78
2023-03-11T02:40:00.888Z,1000.81
2023-03-11T02:41:00.837Z,1000.86
2023-03-11T02:42:00.852Z,1000.92
2023-03-11T02:43:00.822Z,1000.91
2023-03-11T02:44:00.856Z,1000.87
2023-03-11T02:45:00.787Z,1000.95
2023-03-11T02:46:00.813Z,1000.93
2023-03-11T02:47:00.860Z,1000.86
2023-03-11T02:48:00.791Z,1000.95
2023-03-11T02:49:00.736Z,1000.96
2023-03-11T02:50:00.794Z,1000.94
2023-03-11T02:51:00.724Z,1001.03
2023-03-11T02:52:00.739Z,1001.00
2023-03-11T02:53:00.684Z,1000.97
2023-03-11T02:54:00.709Z,1000.99
2023-03-11T02:55:00.647Z,1000.98
2023-03-11T02:56:00.715Z,1001.01
2023-03-11T02:57:00.631Z,1001.03
2023-03-11T02:59:34.670Z,1001.02
2023-03-11T03:00:11.623Z,1001.08
2023-03-11T03:01:11.709Z,1001.01
2023-03-11T03:02:11.555Z,1000.96
2023-03-11T03:03:11.600Z,1001.03
2023-03-11T03:04:11.664Z,1001.04
2023-03-11T03:05:11.570Z,1001.11
2023-03-11T03:06:11.533Z,1001.08
2023-03-11T03:07:11.567Z,1001.10
2023-03-11T03:08:11.523Z,1001.10
2023-03-11T03:09:11.504Z,1001.09
2023-03-11T03:10:11.463Z,1001.12
2023-03-11T03:11:11.526Z,1001.14
2023-03-11T03:12:11.444Z,1001.15
2023-03-11T03:13:11.503Z,1001.11
2023-03-11T03:14:11.422Z,1001.17
2023-03-11T03:15:11.427Z,1001.09
2023-03-11T03:16:11.502Z,1001.14
2023-03-11T03:17:11.521Z,1001.14
2023-03-11T03:18:11.357Z,1001.20
2023-03-11T03:19:11.497Z,1001.17
2023-03-11T03:20:11.361Z,1001.20
2023-03-11T03:21:11.339Z,1001.18
2023-03-11T03:22:11.324Z,1001.24
2023-03-11T03:23:11.364Z,1001.17
2023-03-11T03:24:11.293Z,1001.23
2023-03-11T03:25:11.453Z,1001.22
2023-03-11T03:26:11.271Z,1001.29
2023-03-11T03:27:11.270Z,1001.32
2023-03-11T03:28:11.249Z,1001.35
2023-03-11T03:29:11.231Z,1001.30
2023-03-11T03:30:11.190Z,1001.39
2023-03-11T03:31:11.276Z,1001.42
2023-03-11T03:32:11.233Z,1001.47
2023-03-11T03:33:11.213Z,1001.50
2023-03-11T03:34:11.178Z,1001.46
2023-03-11T03:35:11.181Z,1001.53
2023-03-11T03:36:11.153Z,1001.48
2023-03-11T03:37:11.195Z,1001.54
2023-03-11T03:38:11.124Z,1001.64
2023-03-11T03:39:11.096Z,1001.62
2023-03-11T03:40:11.085Z,1001.67
2023-03-11T03:41:11.079Z,1001.68
2023-03-11T03:42:11.032Z,1001.65
2023-03-11T03:43:11.189Z,1001.72
2023-03-11T03:44:11.015Z,1001.73
2023-03-11T03:45:11.064Z,1001.75
2023-03-11T03:46:11.045Z,1001.79
2023-03-11T03:47:11.018Z,1001.76
2023-03-11T03:48:10.981Z,1001.79
2023-03-11T03:49:10.993Z,1001.80
2023-03-11T03:50:11.898Z,1001.78
2023-03-11T03:51:10.980Z,1001.85
2023-03-11T03:52:10.921Z,1001.86
2023-03-11T03:53:10.915Z,1001.87
2023-03-11T03:54:10.877Z,1001.89
2023-03-11T03:55:11.038Z,1001.92
2023-03-11T03:56:10.849Z,1001.89
2023-03-11T03:57:10.897Z,1001.92
2023-03-11T03:58:10.857Z,1001.93
2023-03-11T03:59:10.848Z,1001.91
2023-03-11T04:00:10.843Z,1002.01
2023-03-11T04:01:10.852Z,1002.01
2023-03-11T04:02:10.830Z,1001.96
2023-03-11T04:03:10.868Z,1001.93
2023-03-11T04:04:10.760Z,1001.97
2023-03-11T04:05:10.786Z,1001.98
2023-03-11T04:06:10.772Z,1002.03
2023-03-11T04:07:10.771Z,1002.07
2023-03-11T04:08:11.699Z,1002.03
2023-03-11T04:09:10.729Z,1002.04
2023-03-11T04:10:10.674Z,1002.07
2023-03-11T04:11:10.707Z,1002.06
2023-03-11T04:12:10.647Z,1002.12
2023-03-11T04:13:10.733Z,1002.03
2023-03-11T04:14:10.651Z,1002.05
2023-03-11T04:15:10.644Z,1002.13
2023-03-11T04:16:10.636Z,1002.09
2023-03-11T04:17:10.719Z,1002.10
2023-03-11T04:18:10.588Z,1002.14
2023-03-11T04:19:10.726Z,1002.18
2023-03-11T04:20:10.560Z,1002.18
2023-03-11T04:21:10.592Z,1002.23
2023-03-11T04:22:10.544Z,1002.18
2023-03-11T04:23:10.535Z,1002.18
2023-03-11T04:24:10.495Z,1002.24
2023-03-11T04:25:10.567Z,1002.22
2023-03-11T04:26:10.494Z,1002.28
2023-03-11T04:27:10.480Z,1002.22
2023-03-11T04:28:10.462Z,1002.24
2023-03-11T04:29:10.453Z,1002.25
2023-03-11T04:30:10.416Z,1002.29
2023-03-11T04:31:10.505Z,1002.28
2023-03-11T04:32:10.399Z,1002.30
2023-03-11T04:33:10.420Z,1002.27
2023-03-11T04:34:10.390Z,1002.30
2023-03-11T04:35:10.384Z,1002.31
2023-03-11T04:36:10.358Z,1002.34
2023-03-11T04:37:10.384Z,1002.34
2023-03-11T04:38:10.302Z,1002.31
2023-03-11T04:39:10.350Z,1002.39
2023-03-11T04:40:10.318Z,1002.39
2023-03-11T04:41:10.306Z,1002.36
2023-03-11T04:42:10.261Z,1002.41
2023-03-11T04:43:10.400Z,1002.42
2023-03-11T04:44:10.256Z,1002.36
2023-03-11T04:45:10.298Z,1002.41
2023-03-11T04:46:10.320Z,1002.40
2023-03-11T04:47:10.227Z,1002.43
2023-03-11T04:48:10.210Z,1002.43
2023-03-11T04:49:10.284Z,1002.45
2023-03-11T04:50:10.146Z,1002.47
2023-03-11T04:51:10.193Z,1002.48
2023-03-11T04:52:10.124Z,1002.53
2023-03-11T04:53:10.168Z,1002.55
2023-03-11T04:54:10.150Z,1002.58
2023-03-11T04:55:10.230Z,1002.62
2023-03-11T04:56:10.082Z,1002.62
2023-03-11T04:57:10.131Z,1002.63
2023-03-11T04:58:10.080Z,1002.65
2023-03-11T04:59:10.088Z,1002.63
2023-03-11T05:00:10.060Z,1002.64
2023-03-11T05:01:10.198Z,1002.61
2023-03-11T05:02:12.478Z,1002.59
2023-03-11T05:03:10.072Z,1002.58
2023-03-11T05:04:09.985Z,1002.53
2023-03-11T05:05:10.043Z,1002.56
2023-03-11T05:06:09.993Z,1002.61
2023-03-11T05:07:09.996Z,1002.66
2023-03-11T05:08:09.990Z,1002.67
2023-03-11T05:09:09.980Z,1002.77
2023-03-11T05:10:09.937Z,1002.79
2023-03-11T05:11:09.966Z,1002.82
2023-03-11T05:12:09.891Z,1002.82
2023-03-11T05:13:09.977Z,1002.80
2023-03-11T05:14:09.895Z,1002.83
2023-03-11T05:15:09.879Z,1002.83
2023-03-11T05:16:09.871Z,1002.85
2023-03-11T05:17:09.839Z,1002.89
2023-03-11T05:18:09.814Z,1002.94
2023-03-11T05:19:09.958Z,1002.90
2023-03-11T05:20:09.809Z,1002.92
2023-03-11T05:21:09.848Z,1002.95
2023-03-11T05:22:09.804Z,1002.91
2023-03-11T05:23:09.763Z,1002.97
2023-03-11T05:24:09.750Z,1003.00
2023-03-11T05:25:09.868Z,1002.99
2023-03-11T05:26:09.691Z,1002.99
2023-03-11T05:27:09.755Z,1003.02
2023-03-11T05:28:09.707Z,1003.01
2023-03-11T05:29:09.682Z,1003.03
2023-03-11T05:30:09.663Z,1003.07
2023-03-11T05:31:09.803Z,1003.09
2023-03-11T05:32:09.632Z,1003.05
2023-03-11T05:33:09.673Z,1003.08
2023-03-11T05:34:09.632Z,1003.12
2023-03-11T05:35:09.623Z,1003.16
2023-03-11T05:36:09.604Z,1003.11
2023-03-11T05:37:09.634Z,1003.15
2023-03-11T05:38:09.564Z,1003.22
2023-03-11T05:39:09.599Z,1003.21
2023-03-11T05:40:09.533Z,1003.18
2023-03-11T05:41:09.582Z,1003.17
2023-03-11T05:42:09.573Z,1003.24
2023-03-11T05:43:09.546Z,1003.21
2023-03-11T05:44:09.499Z,1003.28
2023-03-11T05:45:09.523Z,1003.27
2023-03-11T05:46:09.543Z,1003.29
2023-03-11T05:47:09.462Z,1003.23
2023-03-11T05:48:09.451Z,1003.31
2023-03-11T05:49:09.559Z,1003.29
2023-03-11T05:50:09.411Z,1003.31
2023-03-11T05:51:09.449Z,1003.36
2023-03-11T05:52:09.381Z,1003.30
2023-03-11T05:53:09.430Z,1003.37
2023-03-11T05:54:09.370Z,1003.34
2023-03-11T05:55:09.388Z,1003.33
2023-03-11T05:56:09.371Z,1003.35
2023-03-11T05:57:09.343Z,1003.41
2023-03-11T05:58:09.298Z,1003.41
2023-03-11T05:59:09.343Z,1003.39
2023-03-11T06:00:09.297Z,1003.39
2023-03-11T06:01:09.335Z,1003.43
2023-03-11T06:02:09.268Z,1003.45
2023-03-11T06:03:09.305Z,1003.46
2023-03-11T06:04:09.316Z,1003.50
2023-03-11T06:05:11.640Z,1003.52
2023-03-11T06:06:09.226Z,1003.51
2023-03-11T06:07:09.234Z,1003.52
2023-03-11T06:08:09.207Z,1003.54
2023-03-11T06:09:09.173Z,1003.62
2023-03-11T06:10:09.142Z,1003.60
2023-03-11T06:11:09.182Z,1003.65
2023-03-11T06:12:09.145Z,1003.65
2023-03-11T06:13:09.171Z,1003.68
2023-03-11T06:14:09.118Z,1003.72
2023-03-11T06:15:09.143Z,1003.69
2023-03-11T06:16:09.128Z,1003.74
2023-03-11T06:17:09.062Z,1003.76
2023-03-11T06:18:09.103Z,1003.79
2023-03-11T06:19:09.060Z,1003.72
2023-03-11T06:20:09.088Z,1003.76
2023-03-11T06:21:09.024Z,1003.78
2023-03-11T06:22:09.032Z,1003.80
2023-03-11T06:23:09.002Z,1003.83
2023-03-11T06:24:08.991Z,1003.75
2023-03-11T06:25:09.099Z,1003.87
2023-03-11T06:26:08.984Z,1003.81
2023-03-11T06:27:08.918Z,1003.87
2023-03-11T06:28:08.957Z,1003.86
2023-03-11T06:29:08.887Z,1003.85
2023-03-11T06:30:08.899Z,1003.81
2023-03-11T06:31:09.083Z,1003.86
2023-03-11T06:32:08.953Z,1003.94
2023-03-11T06:33:08.860Z,1003.96
2023-03-11T06:34:08.880Z,1003.96
2023-03-11T06:35:08.842Z,1004.02
2023-03-11T06:36:08.897Z,1003.98
2023-03-11T06:37:08.868Z,1004.05
2023-03-11T06:38:08.849Z,1003.97
2023-03-11T06:39:08.756Z,1004.00
2023-03-11T06:40:08.808Z,1004.02
2023-03-11T06:41:08.734Z,1004.03
2023-03-11T06:42:08.751Z,1004.06
2023-03-11T06:43:08.773Z,1004.06
2023-03-11T06:44:08.731Z,1004.12
2023-03-11T06:45:08.734Z,1004.10
2023-03-11T06:46:08.800Z,1004.07
2023-03-11T06:47:08.666Z,1004.08
2023-03-11T06:48:08.694Z,1004.20
2023-03-11T06:49:08.717Z,1004.14
2023-03-11T06:50:08.685Z,1004.13
2023-03-11T06:51:08.629Z,1004.19
2023-03-11T06:52:08.679Z,1004.22
2023-03-11T06:53:08.627Z,1004.21
2023-03-11T06:54:08.597Z,1004.18
2023-03-11T06:55:08.669Z,1004.28
2023-03-11T06:56:08.584Z,1004.34
2023-03-11T06:57:08.573Z,1004.29
2023-03-11T06:58:12.772Z,1004.32
2023-03-11T06:59:08.514Z,1004.39
2023-03-11T07:00:08.545Z,1004.38
2023-03-11T07:01:08.535Z,1004.34
2023-03-11T07:02:08.488Z,1004.36
2023-03-11T07:03:08.491Z,1004.32
2023-03-11T07:04:08.544Z,1004.38
2023-03-11T07:05:08.437Z,1004.37
2023-03-11T07:06:08.455Z,1004.37
2023-03-11T07:07:08.488Z,1004.36
2023-03-11T07:08:08.448Z,1004.45
2023-03-11T07:09:08.414Z,1004.48
2023-03-11T07:10:08.429Z,1004.46
2023-03-11T07:11:08.358Z,1004.52
2023-03-11T07:12:08.410Z,1004.55
2023-03-11T07:13:08.499Z,1004.48
2023-03-11T07:14:08.383Z,1004.62
2023-03-11T07:15:08.326Z,1004.64
2023-03-11T07:16:08.371Z,1004.64
2023-03-11T07:17:08.320Z,1004.68
2023-03-11T07:18:08.328Z,1004.72
2023-03-11T07:19:08.280Z,1004.70
2023-03-11T07:20:08.290Z,1004.75
2023-03-11T07:21:08.251Z,1004.71
2023-03-11T07:22:08.253Z,1004.71
2023-03-11T07:23:08.242Z,1004.75
2023-03-11T07:24:08.224Z,1004.79
2023-03-11T07:25:08.254Z,1004.80
2023-03-11T07:26:08.241Z,1004.82
2023-03-11T07:27:08.180Z,1004.84
2023-03-11T07:28:08.208Z,1004.84
2023-03-11T07:29:08.135Z,1004.90
2023-03-11T07:30:08.147Z,1004.89
2023-03-11T07:31:08.194Z,1004.85
2023-03-11T07:32:08.135Z,1004.97
2023-03-11T07:33:08.103Z,1004.93
2023-03-11T07:34:08.155Z,1005.00
2023-03-11T07:35:08.076Z,1005.01
2023-03-11T07:36:08.876Z,1005.03
2023-03-11T07:37:08.481Z,1005.05
2023-03-11T07:38:08.069Z,1005.07
2023-03-11T07:39:08.021Z,1005.07
2023-03-11T07:40:08.420Z,1005.11
2023-03-11T07:41:08.056Z,1005.11
2023-03-11T07:42:07.988Z,1005.16
2023-03-11T07:43:08.084Z,1005.15
2023-03-11T07:44:09.823Z,1005.15
2023-03-11T07:45:07.946Z,1005.17
2023-03-11T07:46:08.022Z,1005.22
2023-03-11T07:47:07.906Z,1005.17
2023-03-11T07:48:07.946Z,1005.20
2023-03-11T07:49:07.901Z,1005.21
2023-03-11T07:50:07.906Z,1005.21
2023-03-11T07:51:07.915Z,1005.18
2023-03-11T07:52:08.750Z,1005.24
2023-03-11T07:53:07.826Z,1005.20
2023-03-11T07:54:07.846Z,1005.24
2023-03-11T07:55:07.945Z,1005.28
2023-03-11T07:56:07.845Z,1005.28
2023-03-11T07:57:07.794Z,1005.32
2023-03-11T07:58:07.821Z,1005.32
2023-03-11T07:59:07.775Z,1005.37
2023-03-11T08:00:07.774Z,1005.33
2023-03-11T08:01:07.748Z,1005.41
2023-03-11T08:02:07.777Z,1005.41
2023-03-11T08:03:07.724Z,1005.40
2023-03-11T08:04:07.736Z,1005.43
2023-03-11T08:05:07.708Z,1005.43
2023-03-11T08:06:07.704Z,1005.48
2023-03-11T08:07:11.516Z,1005.51
2023-03-11T08:08:07.662Z,1005.49
2023-03-11T08:09:07.696Z,1005.53
2023-03-11T08:10:07.645Z,1005.54
2023-03-11T08:11:07.597Z,1005.59
2023-03-11T08:12:07.645Z,1005.58
2023-03-11T08:13:07.597Z,1005.61
2023-03-11T08:14:07.586Z,1005.59
2023-03-11T08:15:07.579Z,1005.61
2023-03-11T08:16:08.055Z,1005.59
2023-03-11T08:17:07.585Z,1005.61
2023-03-11T08:18:09.426Z,1005.66
2023-03-11T08:19:07.522Z,1005.71
2023-03-11T08:20:07.558Z,1005.73
2023-03-11T08:21:11.448Z,1005.70
2023-03-11T08:22:07.761Z,1005.72
2023-03-11T08:23:07.457Z,1005.76
2023-03-11T08:24:07.498Z,1005.79
2023-03-11T08:25:07.449Z,1005.83
2023-03-11T08:26:07.470Z,1005.80
2023-03-11T08:27:07.392Z,1005.82
2023-03-11T08:28:07.419Z,1005.86
2023-03-11T08:29:07.343Z,1005.88
2023-03-11T08:30:07.380Z,1005.88
2023-03-11T08:31:07.493Z,1005.86
2023-03-11T08:32:07.377Z,1005.87
2023-03-11T08:33:07.320Z,1005.82
2023-03-11T08:34:07.361Z,1005.79
2023-03-11T08:35:07.293Z,1005.79
2023-03-11T08:36:07.393Z,1005.74
2023-03-11T08:37:07.304Z,1005.81
2023-03-11T08:38:43.045Z,1005.77
2023-03-11T08:39:07.314Z,1005.82
2023-03-11T08:40:07.216Z,1005.83
2023-03-11T08:41:07.233Z,1005.86
2023-03-11T08:42:07.221Z,1005.87
2023-03-11T08:43:07.245Z,1005.83
2023-03-11T08:44:07.196Z,1005.86
2023-03-11T08:45:07.225Z,1005.86
2023-03-11T08:46:07.218Z,1005.83
2023-03-11T08:47:07.204Z,1005.91
2023-03-11T08:48:07.134Z,1005.93
2023-03-11T08:49:07.164Z,1005.93
2023-03-11T08:50:07.106Z,1005.95
2023-03-11T08:51:07.088Z,1006.01
2023-03-11T08:52:07.072Z,1005.99
2023-03-11T08:53:07.097Z,1005.98
2023-03-11T08:54:07.030Z,1006.00
2023-03-11T08:55:07.088Z,1006.01
2023-03-11T08:56:07.029Z,1005.95
2023-03-11T08:57:07.054Z,1006.02
2023-03-11T08:58:06.969Z,1006.00
2023-03-11T08:59:07.012Z,1005.99
2023-03-11T09:00:06.957Z,1005.98
2023-03-11T09:01:07.087Z,1006.03
2023-03-11T09:02:06.961Z,1006.03
2023-03-11T09:03:06.971Z,1006.06
2023-03-11T09:04:07.622Z,1006.10
2023-03-11T09:05:06.944Z,1006.06
2023-03-11T09:06:06.953Z,1006.09
2023-03-11T09:07:07.164Z,1006.08
2023-03-11T09:08:06.851Z,1006.12
2023-03-11T09:09:06.859Z,1006.13
2023-03-11T09:10:06.845Z,1006.10
2023-03-11T09:11:06.861Z,1006.16
2023-03-11T09:12:06.789Z,1006.14
2023-03-11T09:13:06.921Z,1006.14
2023-03-11T09:14:06.812Z,1006.15
2023-03-11T09:15:06.779Z,1006.17
2023-03-11T09:16:06.774Z,1006.16
2023-03-11T09:17:06.797Z,1006.20
2023-03-11T09:18:06.736Z,1006.18
2023-03-11T09:19:06.819Z,1006.19
2023-03-11T09:20:06.706Z,1006.17
2023-03-11T09:21:06.722Z,1006.27
2023-03-11T09:22:06.717Z,1006.24
2023-03-11T09:23:06.673Z,1006.19
2023-03-11T09:24:06.663Z,1006.19
2023-03-11T09:25:06.788Z,1006.18
2023-03-11T09:26:06.625Z,1006.23
2023-03-11T09:27:06.651Z,1006.23
2023-03-11T09:28:06.611Z,1006.23
2023-03-11T09:29:06.604Z,1006.24
2023-03-11T09:30:06.582Z,1006.20
2023-03-11T09:31:06.776Z,1006.21
2023-03-11T09:32:06.576Z,1006.15
2023-03-11T09:33:06.597Z,1006.22
2023-03-11T09:34:06.523Z,1006.23
2023-03-11T09:35:06.565Z,1006.21
2023-03-11T09:36:06.506Z,1006.24
2023-03-11T09:37:06.532Z,1006.24
2023-03-11T09:38:06.494Z,1006.24
2023-03-11T09:39:06.464Z,1006.25
2023-03-11T09:40:06.473Z,1006.30
2023-03-11T09:41:06.485Z,1006.31
2023-03-11T09:42:06.405Z,1006.27
2023-03-11T09:43:06.447Z,1006.31
2023-03-11T09:44:06.421Z,1006.35
2023-03-11T09:45:06.434Z,1006.35
2023-03-11T09:46:06.349Z,1006.37
2023-03-11T09:47:06.408Z,1006.36
2023-03-11T09:48:06.327Z,1006.34
2023-03-11T09:49:06.385Z,1006.38
2023-03-11T09:50:06.345Z,1006.34
2023-03-11T09:51:06.330Z,1006.41
2023-03-11T09:52:06.323Z,1006.41
2023-03-11T09:53:06.362Z,1006.40
2023-03-11T09:54:06.266Z,1006.41
2023-03-11T09:55:06.408Z,1006.43
2023-03-11T09:56:06.220Z,1006.40
2023-03-11T09:57:06.228Z,1006.42
2023-03-11T09:58:06.245Z,1006.45
2023-03-11T09:59:06.265Z,1006.43
2023-03-11T10:00:06.184Z,1006.45
2023-03-11T10:01:06.280Z,1006.38
2023-03-11T10:02:06.214Z,1006.43
2023-03-11T10:03:06.244Z,1006.42
2023-03-11T10:04:06.232Z,1006.43
2023-03-11T10:05:06.205Z,1006.43
2023-03-11T10:06:06.157Z,1006.47
2023-03-11T10:07:06.271Z,1006.47
2023-03-11T10:08:06.145Z,1006.49
2023-03-11T10:09:06.131Z,1006.51
2023-03-11T10:10:06.069Z,1006.53
2023-03-11T10:11:06.068Z,1006.49
2023-03-11T10:12:06.040Z,1006.48
2023-03-11T10:13:06.098Z,1006.48
2023-03-11T10:14:06.001Z,1006.46
2023-03-11T10:15:06.003Z,1006.47
2023-03-11T10:16:06.012Z,1006.54
2023-03-11T10:17:06.014Z,1006.48
2023-03-11T10:18:05.962Z,1006.47
2023-03-11T10:19:06.049Z,1006.47
2023-03-11T10:20:05.926Z,1006.54
2023-03-11T10:21:05.939Z,1006.52
2023-03-11T10:22:05.918Z,1006.57
2023-03-11T10:23:05.904Z,1006.52
2023-03-11T10:24:05.907Z,1006.55
2023-03-11T10:25:05.996Z,1006.53
2023-03-11T10:26:05.844Z,1006.53
2023-03-11T10:27:05.882Z,1006.56
2023-03-11T10:28:05.821Z,1006.53
2023-03-11T10:29:05.833Z,1006.55
2023-03-11T10:30:05.820Z,1006.54
2023-03-11T10:31:05.925Z,1006.59
2023-03-11T10:32:05.786Z,1006.58
2023-03-11T10:33:05.759Z,1006.53
2023-03-11T10:34:05.792Z,1006.54
2023-03-11T10:35:05.735Z,1006.54
2023-03-11T10:36:05.833Z,1006.58
2023-03-11T10:38:23.270Z,1006.63
2023-03-11T10:39:17.339Z,1006.56
2023-03-11T10:40:17.254Z,1006.54
2023-03-11T10:41:17.202Z,1006.58
2023-03-11T10:42:17.172Z,1006.56
2023-03-11T10:43:17.169Z,1006.57
2023-03-11T10:44:17.183Z,1006.56
2023-03-11T10:45:17.105Z,1006.61
2023-03-11T10:46:17.235Z,1006.58
2023-03-11T10:47:17.088Z,1006.57
2023-03-11T10:48:17.132Z,1006.63
2023-03-11T10:49:17.130Z,1006.62
2023-03-11T10:50:17.098Z,1006.61
2023-03-11T10:51:17.055Z,1006.64
2023-03-11T10:52:17.065Z,1006.61
2023-03-11T10:53:17.001Z,1006.59
2023-03-11T10:54:17.042Z,1006.62
2023-03-11T10:55:16.964Z,1006.66
2023-03-11T10:56:17.072Z,1006.67
2023-03-11T10:57:16.985Z,1006.66
2023-03-11T10:58:16.957Z,1006.66
2023-03-11T10:59:16.939Z,1006.65
2023-03-11T11:00:16.944Z,1006.67
2023-03-11T11:01:16.953Z,1006.65
2023-03-11T11:02:17.058Z,1006.67
2023-03-11T11:03:16.860Z,1006.61
2023-03-11T11:04:16.963Z,1006.68
2023-03-11T11:05:16.861Z,1006.67
2023-03-11T11:06:16.865Z,1006.73
2023-03-11T11:07:16.843Z,1006.69
2023-03-11T11:08:16.875Z,1006.68
2023-03-11T11:09:16.818Z,1006.67
2023-03-11T11:10:16.837Z,1006.64
2023-03-11T11:11:16.796Z,1006.64
2023-03-11T11:12:16.775Z,1006.61
2023-03-11T11:13:16.799Z,1006.61
2023-03-11T11:14:16.814Z,1006.65
2023-03-11T11:15:16.707Z,1006.66
2023-03-11T11:16:16.846Z,1006.59
2023-03-11T11:17:16.703Z,1006.64
2023-03-11T11:18:16.699Z,1006.63
2023-03-11T11:19:16.683Z,1006.63
2023-03-11T11:20:16.703Z,1006.65
2023-03-11T11:21:16.641Z,1006.68
2023-03-11T11:22:16.673Z,1006.72
2023-03-11T11:23:16.601Z,1006.74
2023-03-11T11:24:16.675Z,1006.72
2023-03-11T11:25:16.622Z,1006.76
2023-03-11T11:26:16.628Z,1006.78
2023-03-11T11:27:16.541Z,1006.81
2023-03-11T11:28:16.577Z,1006.78
2023-03-11T11:29:16.551Z,1006.74
2023-03-11T11:30:16.538Z,1006.72
2023-03-11T11:31:16.553Z,1006.66
2023-03-11T11:32:16.575Z,1006.68
2023-03-11T11:33:16.482Z,1006.66
2023-03-11T11:34:16.507Z,1006.70
2023-03-11T11:35:16.455Z,1006.65
2023-03-11T11:36:16.489Z,1006.67
2023-03-11T11:37:16.446Z,1006.66
2023-03-11T11:38:16.451Z,1006.65
2023-03-11T11:39:16.408Z,1006.61
2023-03-11T11:40:16.388Z,1006.56
2023-03-11T11:41:16.368Z,1006.55
2023-03-11T11:42:16.398Z,1006.68
2023-03-11T11:43:16.361Z,1006.68
2023-03-11T11:44:16.371Z,1006.64
2023-03-11T11:45:16.306Z,1006.65
2023-03-11T11:46:16.373Z,1006.69
2023-03-11T11:47:17.226Z,1006.68
2023-03-11T11:48:16.319Z,1006.65
2023-03-11T11:49:16.271Z,1006.66
2023-03-11T11:50:16.319Z,1006.62
2023-03-11T11:51:16.271Z,1006.66
2023-03-11T11:52:16.245Z,1006.66
2023-03-11T11:53:16.198Z,1006.73
2023-03-11T11:54:16.235Z,1006.70
2023-03-11T11:55:16.170Z,1006.73
2023-03-11T11:56:16.311Z,1006.67
2023-03-11T11:57:16.161Z,1006.72
2023-03-11T11:58:16.155Z,1006.70
2023-03-11T11:59:16.139Z,1006.73
2023-03-11T12:00:16.196Z,1006.71
2023-03-11T12:01:16.102Z,1006.65
2023-03-11T12:02:16.142Z,1006.68
2023-03-11T12:03:16.127Z,1006.66
2023-03-11T12:04:16.090Z,1006.62
2023-03-11T12:05:16.114Z,1006.60
2023-03-11T12:06:16.044Z,1006.62
2023-03-11T12:07:16.032Z,1006.63
2023-03-11T12:08:16.116Z,1006.66
2023-03-11T12:09:16.067Z,1006.63
2023-03-11T12:10:22.822Z,1006.67